createdAt,value
2019-02-10T00:00:48.136Z,99.90
2019-02-10T00:03:16.948Z,99.90
2019-02-10T00:05:45.781Z,99.90
2019-02-10T00:08:14.613Z,99.90
2019-02-10T00:10:43.501Z,99.90
2019-02-10T00:13:32.763Z,99.90
2019-02-10T00:16:03.969Z,99.90
2019-02-10T00:18:32.903Z,99.70
2019-02-10T00:21:01.638Z,99.60
2019-02-10T00:23:30.423Z,99.90
2019-02-10T00:25:59.289Z,99.60
2019-02-10T00:28:28.046Z,99.80
2019-02-10T00:30:56.848Z,99.50
2019-02-10T00:33:25.592Z,99.50
2019-02-10T00:35:54.396Z,99.20
2019-02-10T00:38:23.154Z,99.10
2019-02-10T00:40:51.935Z,99.10
2019-02-10T00:43:20.990Z,98.70
2019-02-10T00:45:49.838Z,98.80
2019-02-10T00:48:18.664Z,98.90
2019-02-10T00:51:06.758Z,99.20
2019-02-10T00:53:35.626Z,99.40
2019-02-10T00:56:04.408Z,99.80
2019-02-10T00:58:33.211Z,99.90
2019-02-10T01:01:02.055Z,99.90
2019-02-10T01:03:30.849Z,99.90
2019-02-10T01:05:59.706Z,99.90
2019-02-10T01:08:28.454Z,99.90
2019-02-10T01:10:57.243Z,99.90
2019-02-10T01:13:26.050Z,99.90
2019-02-10T01:15:54.665Z,99.90
2019-02-10T01:18:23.309Z,99.90
2019-02-10T01:20:52.124Z,99.90
2019-02-10T01:23:20.887Z,99.90
2019-02-10T01:25:49.583Z,99.90
2019-02-10T01:28:18.463Z,99.90
2019-02-10T01:30:47.243Z,99.50
2019-02-10T01:33:16.080Z,99.50
2019-02-10T01:35:44.906Z,99.20
2019-02-10T01:38:13.574Z,99.10
2019-02-10T01:40:42.341Z,99.20
2019-02-10T01:43:11.105Z,99.20
2019-02-10T01:45:39.734Z,99.00
2019-02-10T01:48:08.424Z,98.70
2019-02-10T01:50:37.227Z,98.90
2019-02-10T01:53:05.966Z,98.80
2019-02-10T01:55:34.783Z,98.60
2019-02-10T01:58:03.564Z,98.60
2019-02-10T02:00:32.387Z,98.50
2019-02-10T02:03:01.177Z,98.60
2019-02-10T02:05:30.026Z,98.80
2019-02-10T02:07:59.923Z,98.90
2019-02-10T02:10:28.750Z,99.30
2019-02-10T02:12:57.502Z,99.20
2019-02-10T02:15:26.269Z,99.30
2019-02-10T02:17:54.980Z,99.50
2019-02-10T02:20:23.718Z,99.40
2019-02-10T02:22:52.420Z,99.30
2019-02-10T02:25:21.070Z,99.00
2019-02-10T02:27:49.996Z,99.10
2019-02-10T02:30:18.927Z,98.90
2019-02-10T02:32:47.882Z,99.30
2019-02-10T02:35:16.941Z,99.00
2019-02-10T02:37:45.681Z,99.20
2019-02-10T02:40:14.631Z,99.00
2019-02-10T02:42:43.448Z,98.70
2019-02-10T02:45:12.800Z,99.00
2019-02-10T02:47:41.822Z,99.10
2019-02-10T02:50:11.766Z,99.30
2019-02-10T02:52:40.670Z,99.70
2019-02-10T02:55:10.993Z,99.70
2019-02-10T02:57:39.906Z,99.90
2019-02-10T03:00:10.492Z,99.90
2019-02-10T03:02:39.540Z,99.90
2019-02-10T03:05:10.089Z,99.90
2019-02-10T03:07:38.924Z,99.90
2019-02-10T03:10:09.031Z,99.90
2019-02-10T03:12:38.077Z,99.90
2019-02-10T03:15:08.645Z,99.90
2019-02-10T03:17:37.482Z,99.90
2019-02-10T03:20:07.741Z,99.90
2019-02-10T03:22:36.535Z,99.90
2019-02-10T03:25:06.890Z,99.90
2019-02-10T03:27:35.849Z,99.90
2019-02-10T03:30:06.521Z,99.90
2019-02-10T03:32:35.501Z,99.90
2019-02-10T03:35:06.518Z,99.90
2019-02-10T03:37:35.383Z,99.90
2019-02-10T03:40:05.737Z,99.90
2019-02-10T03:42:34.762Z,99.90
2019-02-10T03:45:03.564Z,99.90
2019-02-10T03:47:32.339Z,99.90
2019-02-10T03:50:01.288Z,99.90
2019-02-10T03:52:30.020Z,99.90
2019-02-10T03:54:58.907Z,99.90
2019-02-10T03:57:27.622Z,99.90
2019-02-10T03:59:56.536Z,99.90
2019-02-10T04:02:25.274Z,99.90
2019-02-10T04:04:54.200Z,99.90
2019-02-10T04:07:22.998Z,99.90
2019-02-10T04:09:51.820Z,99.90
2019-02-10T04:12:20.849Z,99.90
2019-02-10T04:14:49.812Z,99.90
2019-02-10T04:17:18.636Z,99.90
2019-02-10T04:19:47.568Z,99.90
2019-02-10T04:22:16.478Z,99.90
2019-02-10T04:24:45.350Z,99.90
2019-02-10T04:27:14.263Z,99.90
2019-02-10T04:29:43.142Z,99.90
2019-02-10T04:32:11.920Z,99.90
2019-02-10T04:34:40.847Z,99.90
2019-02-10T04:37:09.724Z,99.90
2019-02-10T04:39:38.568Z,99.90
2019-02-10T04:42:07.485Z,99.90
2019-02-10T04:44:36.224Z,99.90
2019-02-10T04:47:05.178Z,99.90
2019-02-10T04:49:34.003Z,99.70
2019-02-10T04:52:02.858Z,99.50
2019-02-10T04:54:31.426Z,99.60
2019-02-10T04:57:00.224Z,99.40
2019-02-10T04:59:29.273Z,99.40
2019-02-10T05:01:58.027Z,99.80
2019-02-10T05:04:27.080Z,99.90
2019-02-10T05:06:56.062Z,99.90
2019-02-10T05:09:24.926Z,99.90
2019-02-10T05:11:53.673Z,99.90
2019-02-10T05:14:22.412Z,99.90
2019-02-10T05:16:51.259Z,99.90
2019-02-10T05:19:21.750Z,99.90
2019-02-10T05:21:50.561Z,99.90
2019-02-10T05:24:19.402Z,99.90
2019-02-10T05:26:48.179Z,99.90
2019-02-10T05:29:16.972Z,99.90
2019-02-10T05:31:45.666Z,99.90
2019-02-10T05:34:14.869Z,99.90
2019-02-10T05:36:43.649Z,99.90
2019-02-10T05:39:12.275Z,99.90
2019-02-10T05:41:41.393Z,99.90
2019-02-10T05:44:10.250Z,99.90
2019-02-10T05:46:39.133Z,99.90
2019-02-10T05:49:08.026Z,99.90
2019-02-10T05:51:36.627Z,99.90
2019-02-10T05:54:05.441Z,99.90
2019-02-10T05:56:34.274Z,99.90
2019-02-10T05:59:03.218Z,99.90
2019-02-10T06:02:02.330Z,99.90
2019-02-10T06:04:33.146Z,99.90
2019-02-10T06:07:04.848Z,99.90
2019-02-10T06:09:33.743Z,99.90
2019-02-10T06:12:02.563Z,99.90
2019-02-10T06:14:31.283Z,99.90
2019-02-10T06:17:00.001Z,99.90
2019-02-10T06:19:28.801Z,99.90
2019-02-10T06:21:57.710Z,99.90
2019-02-10T06:24:27.048Z,99.90
2019-02-10T06:26:55.868Z,99.90
2019-02-10T06:29:24.731Z,99.90
2019-02-10T06:31:53.371Z,99.90
2019-02-10T06:34:22.310Z,99.90
2019-02-10T06:36:51.097Z,99.90
2019-02-10T06:39:20.124Z,99.90
2019-02-10T06:41:48.769Z,99.90
2019-02-10T06:44:17.549Z,99.90
2019-02-10T06:46:46.424Z,99.90
2019-02-10T06:49:15.133Z,99.90
2019-02-10T06:51:43.935Z,99.90
2019-02-10T06:54:12.870Z,99.90
2019-02-10T06:56:41.630Z,97.80
2019-02-10T06:59:11.977Z,95.60
2019-02-10T07:01:46.142Z,94.30
2019-02-10T07:04:16.639Z,94.30
2019-02-10T07:06:45.281Z,93.30
2019-02-10T07:09:14.994Z,93.50
2019-02-10T07:11:45.929Z,94.10
2019-02-10T07:14:19.908Z,94.20
2019-02-10T07:17:02.061Z,94.60
2019-02-10T07:19:53.515Z,94.70
2019-02-10T07:22:43.100Z,94.70
2019-02-10T07:25:17.698Z,94.20
2019-02-10T07:27:58.030Z,92.70
2019-02-10T07:30:42.054Z,90.50
2019-02-10T07:33:16.345Z,89.10
2019-02-10T07:36:09.090Z,88.80
2019-02-10T07:38:43.966Z,85.70
2019-02-10T07:41:50.346Z,84.00
2019-02-10T07:44:31.398Z,84.70
2019-02-10T07:47:18.376Z,85.80
2019-02-10T07:49:55.772Z,90.90
2019-02-10T07:52:35.920Z,86.10
2019-02-10T07:55:13.243Z,89.00
2019-02-10T07:57:59.984Z,81.60
2019-02-10T08:00:43.612Z,79.20
2019-02-10T08:03:26.973Z,79.80
2019-02-10T08:06:18.276Z,77.90
2019-02-10T08:09:01.935Z,84.10
2019-02-10T08:11:58.063Z,83.30
2019-02-10T08:14:41.655Z,89.40
2019-02-10T08:17:31.897Z,83.00
2019-02-10T08:20:18.655Z,85.90
2019-02-10T08:23:12.730Z,77.60
2019-02-10T08:25:44.485Z,83.00
2019-02-10T08:28:37.145Z,79.10
2019-02-10T08:31:42.180Z,75.20
2019-02-10T08:34:22.828Z,73.50
2019-02-10T08:37:21.645Z,77.10
2019-02-10T08:40:11.405Z,73.60
2019-02-10T08:42:59.674Z,77.60
2019-02-10T08:45:40.022Z,80.20
2019-02-10T08:48:28.366Z,81.40
2019-02-10T08:51:03.050Z,85.40
2019-02-10T08:53:31.948Z,85.50
2019-02-10T08:56:00.705Z,87.30
2019-02-10T08:58:29.410Z,88.40
2019-02-10T09:00:58.260Z,87.90
2019-02-10T09:03:26.986Z,88.20
2019-02-10T09:05:55.630Z,89.50
2019-02-10T09:08:24.460Z,89.10
2019-02-10T09:10:53.181Z,88.90
2019-02-10T09:13:21.919Z,88.60
2019-02-10T09:15:50.816Z,88.60
2019-02-10T09:18:19.500Z,87.40
2019-02-10T09:20:48.291Z,89.90
2019-02-10T09:23:17.202Z,88.80
2019-02-10T09:25:45.895Z,89.10
2019-02-10T09:28:14.708Z,89.70
2019-02-10T09:30:43.438Z,89.50
2019-02-10T09:33:12.242Z,89.30
2019-02-10T09:35:41.081Z,87.50
2019-02-10T09:38:10.071Z,87.60
2019-02-10T09:40:38.825Z,87.10
2019-02-10T09:43:08.040Z,84.70
2019-02-10T09:45:36.889Z,84.30
2019-02-10T09:48:05.716Z,86.10
2019-02-10T09:50:34.505Z,86.90
2019-02-10T09:53:03.420Z,88.40
2019-02-10T09:55:32.163Z,85.30
2019-02-10T09:58:00.917Z,83.30
2019-02-10T10:00:29.682Z,81.60
2019-02-10T10:02:58.443Z,81.40
2019-02-10T10:05:27.348Z,83.60
2019-02-10T10:07:56.196Z,83.00
2019-02-10T10:10:24.949Z,83.80
2019-02-10T10:12:53.701Z,82.50
2019-02-10T10:15:22.597Z,85.30
2019-02-10T10:17:51.349Z,83.30
2019-02-10T10:20:20.036Z,84.30
2019-02-10T10:22:48.862Z,84.30
2019-02-10T10:25:17.633Z,83.00
2019-02-10T10:27:46.378Z,79.70
2019-02-10T10:30:18.245Z,78.50
2019-02-10T10:32:46.890Z,75.10
2019-02-10T10:35:15.711Z,74.20
2019-02-10T10:37:44.611Z,76.30
2019-02-10T10:40:13.720Z,72.90
2019-02-10T10:42:42.459Z,74.80
2019-02-10T10:45:14.237Z,72.50
2019-02-10T10:47:42.935Z,75.00
2019-02-10T10:50:14.043Z,76.90
2019-02-10T10:52:43.017Z,77.40
2019-02-10T10:55:12.945Z,76.90
2019-02-10T10:57:41.625Z,74.70
2019-02-10T11:00:15.288Z,76.50
2019-02-10T11:02:44.044Z,75.20
2019-02-10T11:05:14.699Z,77.20
2019-02-10T11:07:43.274Z,78.20
2019-02-10T11:10:13.749Z,78.60
2019-02-10T11:12:42.571Z,79.00
2019-02-10T11:15:16.724Z,77.10
2019-02-10T11:17:45.395Z,77.70
2019-02-10T11:20:14.316Z,76.90
2019-02-10T11:22:43.228Z,79.50
2019-02-10T11:25:12.516Z,78.70
2019-02-10T11:27:41.282Z,80.80
2019-02-10T11:30:12.585Z,81.70
2019-02-10T11:32:41.444Z,80.20
2019-02-10T11:35:10.684Z,81.90
2019-02-10T11:37:39.496Z,79.90
2019-02-10T11:40:13.248Z,78.00
2019-02-10T11:42:42.012Z,77.20
2019-02-10T11:45:15.072Z,75.70
2019-02-10T11:47:43.990Z,71.80
2019-02-10T11:50:13.889Z,73.60
2019-02-10T11:52:43.172Z,71.90
2019-02-10T11:55:12.557Z,72.20
2019-02-10T11:57:41.337Z,72.10
2019-02-10T12:00:15.972Z,72.90
2019-02-10T12:02:44.930Z,75.00
2019-02-10T12:05:13.698Z,75.50
2019-02-10T12:07:42.514Z,76.40
2019-02-10T12:10:13.236Z,76.10
2019-02-10T12:12:41.994Z,75.80
2019-02-10T12:15:15.508Z,78.20
2019-02-10T12:17:44.375Z,78.50
2019-02-10T12:20:16.602Z,78.40
2019-02-10T12:22:50.316Z,76.90
2019-02-10T12:25:15.915Z,78.00
2019-02-10T12:27:44.658Z,77.00
2019-02-10T12:30:15.409Z,76.90
2019-02-10T12:32:44.264Z,75.90
2019-02-10T12:35:12.995Z,75.30
2019-02-10T12:37:41.988Z,74.50
2019-02-10T12:40:11.887Z,74.20
2019-02-10T12:42:40.706Z,74.10
2019-02-10T12:45:13.730Z,74.00
2019-02-10T12:47:42.508Z,75.10
2019-02-10T12:50:15.258Z,77.70
2019-02-10T12:52:44.113Z,79.20
2019-02-10T12:55:13.460Z,79.10
2019-02-10T12:57:42.298Z,78.60
2019-02-10T13:00:16.655Z,77.00
2019-02-10T13:02:45.775Z,77.10
2019-02-10T13:05:14.394Z,75.90
2019-02-10T13:07:43.258Z,74.60
2019-02-10T13:10:18.144Z,74.60
2019-02-10T13:12:46.699Z,75.60
2019-02-10T13:15:15.510Z,77.00
2019-02-10T13:17:44.242Z,77.60
2019-02-10T13:20:13.926Z,78.90
2019-02-10T13:22:42.774Z,79.10
2019-02-10T13:25:12.835Z,79.60
2019-02-10T13:27:41.670Z,80.50
2019-02-10T13:30:17.670Z,80.90
2019-02-10T13:32:46.574Z,80.10
2019-02-10T13:35:15.345Z,80.50
2019-02-10T13:37:44.325Z,81.30
2019-02-10T13:40:19.098Z,81.80
2019-02-10T13:42:48.083Z,82.10
2019-02-10T13:45:16.960Z,82.30
2019-02-10T13:47:46.293Z,82.40
2019-02-10T13:50:19.086Z,83.60
2019-02-10T13:52:47.871Z,83.10
2019-02-10T13:55:17.206Z,83.60
2019-02-10T13:57:45.971Z,83.30
2019-02-10T14:00:19.163Z,83.50
2019-02-10T14:02:48.053Z,83.70
2019-02-10T14:05:16.729Z,84.30
2019-02-10T14:07:45.885Z,85.30
2019-02-10T14:10:25.216Z,85.90
2019-02-10T14:12:49.418Z,86.40
2019-02-10T14:15:19.096Z,87.10
2019-02-10T14:17:48.072Z,87.40
2019-02-10T14:20:20.628Z,86.90
2019-02-10T14:22:49.585Z,87.10
2019-02-10T14:25:18.531Z,87.70
2019-02-10T14:27:47.253Z,88.50
2019-02-10T14:30:23.672Z,88.70
2019-02-10T14:32:52.447Z,89.20
2019-02-10T14:35:21.075Z,89.20
2019-02-10T14:37:49.959Z,89.10
2019-02-10T14:40:18.615Z,88.50
2019-02-10T14:42:47.418Z,89.30
2019-02-10T14:45:17.049Z,89.20
2019-02-10T14:47:45.783Z,89.90
2019-02-10T14:50:16.487Z,89.50
2019-02-10T14:52:45.321Z,88.70
2019-02-10T14:55:14.047Z,88.20
2019-02-10T14:57:42.805Z,88.10
2019-02-10T15:00:16.200Z,87.20
2019-02-10T15:02:45.047Z,87.20
2019-02-10T15:05:13.999Z,87.00
2019-02-10T15:07:42.865Z,88.20
2019-02-10T15:10:17.174Z,87.30
2019-02-10T15:12:46.017Z,87.30
2019-02-10T15:15:14.908Z,87.70
2019-02-10T15:17:43.740Z,87.60
2019-02-10T15:20:13.649Z,88.60
2019-02-10T15:22:42.402Z,89.20
2019-02-10T15:25:12.569Z,90.20
2019-02-10T15:27:41.329Z,90.60
2019-02-10T15:30:17.223Z,90.90
2019-02-10T15:32:46.212Z,91.10
2019-02-10T15:35:15.074Z,91.40
2019-02-10T15:37:43.940Z,91.70
2019-02-10T15:40:13.442Z,91.90
2019-02-10T15:42:42.286Z,92.00
2019-02-10T15:45:13.625Z,92.10
2019-02-10T15:47:42.463Z,91.90
2019-02-10T15:50:12.493Z,91.90
2019-02-10T15:52:41.420Z,92.00
2019-02-10T15:55:11.912Z,91.80
2019-02-10T15:57:40.818Z,92.00
2019-02-10T16:00:18.424Z,92.10
2019-02-10T16:02:47.274Z,92.00
2019-02-10T16:05:16.084Z,92.20
2019-02-10T16:07:45.227Z,92.00
2019-02-10T16:10:14.005Z,92.00
2019-02-10T16:12:42.850Z,92.10
2019-02-10T16:15:12.711Z,92.00
2019-02-10T16:17:41.536Z,92.10
2019-02-10T16:20:14.478Z,92.10
2019-02-10T16:22:43.406Z,92.30
2019-02-10T16:25:12.231Z,92.40
2019-02-10T16:27:41.015Z,92.60
2019-02-10T16:30:18.174Z,92.70
2019-02-10T16:32:50.018Z,92.90
2019-02-10T16:35:17.727Z,93.00
2019-02-10T16:37:46.679Z,92.90
2019-02-10T16:40:18.176Z,93.10
2019-02-10T16:42:47.144Z,93.60
2019-02-10T16:45:15.938Z,93.40
2019-02-10T16:47:44.832Z,93.30
2019-02-10T16:50:14.990Z,93.40
2019-02-10T16:52:43.861Z,93.70
2019-02-10T16:55:15.095Z,93.40
2019-02-10T16:57:43.900Z,93.50
2019-02-10T17:00:14.827Z,93.70
2019-02-10T17:02:43.813Z,93.50
2019-02-10T17:05:13.249Z,93.50
2019-02-10T17:07:42.126Z,93.60
2019-02-10T17:10:15.992Z,93.90
2019-02-10T17:12:45.416Z,93.60
2019-02-10T17:15:15.180Z,93.50
2019-02-10T17:17:43.916Z,93.30
2019-02-10T17:20:13.722Z,93.20
2019-02-10T17:22:42.566Z,93.00
2019-02-10T17:25:13.758Z,93.00
2019-02-10T17:27:42.689Z,93.00
2019-02-10T17:30:14.165Z,93.20
2019-02-10T17:32:43.139Z,93.30
2019-02-10T17:35:13.404Z,93.70
2019-02-10T17:37:42.339Z,93.50
2019-02-10T17:40:32.253Z,93.50
2019-02-10T17:43:02.934Z,93.50
2019-02-10T17:45:31.483Z,93.50
2019-02-10T17:48:00.230Z,93.70
2019-02-10T17:50:29.082Z,93.90
2019-02-10T17:52:57.926Z,94.20
2019-02-10T17:55:26.780Z,94.30
2019-02-10T17:57:55.727Z,94.60
2019-02-10T18:00:34.971Z,94.80
2019-02-10T18:03:03.878Z,94.80
2019-02-10T18:05:32.631Z,94.80
2019-02-10T18:08:01.487Z,94.90
2019-02-10T18:10:30.519Z,94.90
2019-02-10T18:12:59.308Z,94.90
2019-02-10T18:15:32.163Z,95.00
2019-02-10T18:18:19.028Z,95.10
2019-02-10T18:21:07.604Z,95.30
2019-02-10T18:23:52.958Z,95.20
2019-02-10T18:26:32.218Z,95.10
2019-02-10T18:29:02.893Z,95.10
2019-02-10T18:31:33.349Z,95.20
2019-02-10T18:34:03.884Z,95.00
2019-02-10T18:36:34.349Z,95.10
2019-02-10T18:39:10.563Z,94.90
2019-02-10T18:41:43.838Z,95.10
2019-02-10T18:44:14.392Z,95.10
2019-02-10T18:46:50.245Z,95.20
2019-02-10T18:49:20.728Z,95.30
2019-02-10T18:52:00.181Z,95.20
2019-02-10T18:54:39.488Z,95.20
2019-02-10T18:57:10.060Z,95.40
2019-02-10T18:59:49.222Z,95.60
2019-02-10T19:02:35.852Z,95.90
2019-02-10T19:05:09.748Z,96.20
2019-02-10T19:07:43.058Z,96.70
2019-02-10T19:10:19.691Z,97.00
2019-02-10T19:12:50.292Z,97.20
2019-02-10T19:15:20.619Z,97.40
2019-02-10T19:17:57.146Z,97.70
2019-02-10T19:20:36.397Z,98.00
2019-02-10T19:23:15.696Z,98.10
2019-02-10T19:25:48.808Z,98.40
2019-02-10T19:28:30.863Z,98.50
2019-02-10T19:31:03.992Z,98.50
2019-02-10T19:33:37.023Z,98.50
2019-02-10T19:36:07.533Z,98.60
2019-02-10T19:38:37.901Z,98.60
2019-02-10T19:41:20.457Z,98.70
2019-02-10T19:43:53.983Z,98.60
2019-02-10T19:46:36.573Z,98.60
2019-02-10T19:49:10.121Z,98.70
2019-02-10T19:51:56.637Z,98.70
2019-02-10T19:54:27.134Z,98.70
2019-02-10T19:57:13.744Z,99.00
2019-02-10T19:59:44.161Z,99.50
2019-02-10T20:02:17.062Z,99.50
2019-02-10T20:04:59.539Z,99.90
2019-02-10T20:07:30.640Z,99.90
2019-02-10T20:10:13.351Z,99.90
2019-02-10T20:13:00.199Z,99.80
2019-02-10T20:15:30.671Z,99.90
2019-02-10T20:18:06.676Z,99.90
2019-02-10T20:20:37.076Z,99.90
2019-02-10T20:23:07.495Z,99.90
2019-02-10T20:28:47.819Z,99.90
2019-02-10T20:31:24.236Z,99.90
2019-02-10T20:34:22.950Z,99.90
2019-02-10T20:36:56.074Z,99.90
2019-02-10T20:39:29.301Z,99.90
2019-02-10T20:42:15.987Z,99.90
2019-02-10T20:45:03.883Z,99.90
2019-02-10T20:47:43.725Z,99.90
2019-02-10T20:50:20.415Z,99.90
2019-02-10T20:52:50.905Z,99.90
2019-02-10T20:55:27.053Z,99.90
2019-02-10T20:57:57.601Z,99.90
2019-02-10T21:00:28.478Z,99.90
2019-02-10T21:03:04.836Z,99.60
2019-02-10T21:05:44.300Z,99.50
2019-02-10T21:08:20.969Z,99.20
2019-02-10T21:10:51.260Z,98.80
2019-02-10T21:13:34.023Z,98.60
2019-02-10T21:16:04.544Z,98.60
2019-02-10T21:18:44.159Z,98.70
2019-02-10T21:21:17.445Z,98.70
2019-02-10T21:23:50.654Z,98.80
2019-02-10T21:26:21.113Z,98.70
2019-02-10T21:29:03.473Z,98.60
2019-02-10T21:31:36.828Z,98.50
2019-02-10T21:34:09.802Z,98.10
2019-02-10T21:36:52.338Z,97.60
2019-02-10T21:39:37.706Z,97.80
2019-02-10T21:42:13.663Z,97.80
2019-02-10T21:44:52.846Z,98.10
2019-02-10T21:47:34.824Z,97.80
2019-02-10T21:50:04.493Z,97.90
2019-02-10T21:52:33.246Z,97.80
2019-02-10T21:55:02.210Z,97.50
2019-02-10T21:57:31.158Z,97.50
2019-02-10T21:59:59.829Z,97.50
2019-02-10T22:02:28.620Z,97.20
2019-02-10T22:04:57.611Z,97.20
2019-02-10T22:07:26.434Z,97.40
2019-02-10T22:09:55.194Z,97.50
2019-02-10T22:12:23.906Z,97.90
2019-02-10T22:14:52.997Z,97.70
2019-02-10T22:17:21.951Z,98.10
2019-02-10T22:19:50.863Z,97.90
2019-02-10T22:22:19.595Z,97.80
2019-02-10T22:24:48.769Z,97.70
2019-02-10T22:27:17.555Z,97.60
2019-02-10T22:29:46.236Z,97.60
2019-02-10T22:32:15.012Z,97.60
2019-02-10T22:34:43.756Z,97.70
2019-02-10T22:37:12.511Z,97.70
2019-02-10T22:39:41.173Z,98.00
2019-02-10T22:42:09.998Z,98.20
2019-02-10T22:44:38.720Z,98.20
2019-02-10T22:47:07.491Z,98.20
2019-02-10T22:49:36.311Z,98.50
2019-02-10T22:52:05.186Z,98.50
2019-02-10T22:54:33.960Z,98.80
2019-02-10T22:57:02.784Z,99.20
2019-02-10T22:59:31.479Z,98.70
2019-02-10T23:02:00.525Z,98.70
2019-02-10T23:04:29.362Z,98.90
2019-02-10T23:06:58.149Z,99.00
2019-02-10T23:09:26.985Z,99.10
2019-02-10T23:11:55.802Z,99.20
2019-02-10T23:14:24.477Z,99.40
2019-02-10T23:16:53.209Z,99.50
2019-02-10T23:19:21.954Z,99.30
2019-02-10T23:21:50.660Z,99.30
2019-02-10T23:24:19.330Z,99.20
2019-02-10T23:26:48.157Z,99.30
2019-02-10T23:29:16.769Z,99.20
2019-02-10T23:31:45.625Z,99.20
2019-02-10T23:34:14.398Z,99.10
2019-02-10T23:36:43.133Z,98.90
2019-02-10T23:39:11.786Z,99.10
2019-02-10T23:41:40.550Z,99.20
2019-02-10T23:44:09.165Z,99.00
2019-02-10T23:46:37.739Z,99.10
2019-02-10T23:49:06.641Z,99.00
2019-02-10T23:51:35.269Z,99.00
2019-02-10T23:54:04.167Z,99.20
2019-02-10T23:56:32.970Z,99.00
2019-02-10T23:59:01.661Z,99.10
